CSW5 weather

Montréal (Bell) Heliport
Montréal, Quebec, Canada

Public forecast

Using degrees Celsius for public forecast. Weather courtesy of forecast.io.

METAR (pilot weather report)

Closest report is Montreal International (Mirabel) Airport, 4.5 nm (8.4 km) W. Retrieved 2019/05/25 20:00 UTC (57 minutes ago):

CYMX 252000Z 15005KT 20SM -RA BKN063 OVC100 17/12 A2992 RMK SC6AC2 SLP136 DENSITY ALT 700FT

TAF (pilot weather forecast)

Closest forecast is Montreal International (Mirabel) Airport, 4.5 nm (8.4 km) W. Retrieved 2019/05/25 18:42 UTC (2 hours ago):

TAF TAF CYMX 251738Z 2518/2618 18010KT P6SM FEW020 SCT100 BKN220 FM251900 18010KT P6SM -SHRA SCT020 BKN060 OVC100 TEMPO 2519/2523 5SM -SHRA BR BKN020 OVC060 FM252300 18010KT P6SM -SHRA OVC030 TEMPO 2523/2604 4SM -SHRA BR BKN006 OVC030 FM260400 20005KT 2SM BR OVC006 PROB40 2604/2611 3/4SM -DZ BR OVC003 FM261100 25010G20KT 6SM BR SCT006 BKN012 FM261300 26010G20KT P6SM BKN020 FM261500 28012G22KT P6SM BKN050 RMK NXT FCST BY 260000Z